Αρχική σελίδα
METAR-TAF:

METAR-TAF

Αεροδρόμια :

Afonsos

Ρίο ντε Τζανέιρο, Ρίο ντε Τζανέιρο, Βραζιλία

γεωγραφικό πλάτος: 22-52S, γεωγραφικό μήκος: 043-22W, υψόμετρο: 34 μ

Παρών καιρός

Η αναφορά έγινε 35 λεπτά πριν, στις 19:00 UTC
Άνεμος 10 kt από Ν/ΝΔ
Θερμοκρασία 30°C
Υγρασία 33%
Πίεση 1016 hPa
Ορατότητα 10 χλμ και άνω
Δεν υπάρχουν νέφη με βάση κάτω από τα 1500 μ. και δεν υπάρχουν νέφη σωρειτομελανίτες.

METAR: SBAF 201900Z 21010KT CAVOK 30/12 Q1016

Χρόνος: 16:35 (19:35 UTC)

Πρόγνωση Καιρού

Η αναφορά έγινε 4 ώρες και 35 λεπτά πριν, στις 15:00 UTC
Η πρόγνωση ισχύει από τις 20 στις 18 UTC έως τις 21 στις 06 UTC
Άνεμος 4 kt από BA
Ορατότητα 10 χλμ και άνω
Δεν υπάρχουν νέφη με βάση κάτω από τα 1500 μ. και δεν υπάρχουν νέφη σωρειτομελανίτες.

TAF: SBAF 201500Z 2018/2106 04004KT CAVOK TX30/2018Z TN17/2105Z RMK PDG

Μετεωρολογικές αναφορές και προγνώσεις για περισσότερα από 4000 αεροδρόμια (δελτία METAR και TAF).

Οι διαθέσιμοι σταθμοί απεικονίζονται στο χάρτη με κίτρινες και κόκκινες κουκκίδες.

Μετακινήστε το ποντίκι πάνω από τις κουκκίδες για να δείτε το όνομα του σταθμού.

Στη συνέχεια, κάντε κλικ για να δείτε τις μετεωρολογικές αναφορές και τις προγνώσεις καιρού.

Για να αλλάξετε το χάρτη: κάντε κλικ στα πράσινα κουμπιά με τον μαύρο σταυρό για να ζουμάρετε, στο πράσινο κουμπί με την παύλα για να αφαιρέσετε το ζουμ ή στα πράσινα βέλη για να αντιπαραβάλλετε χάρτες.


METAR-TAF: